DATE METEO

AZI
Time Temp. Dewp. Hum. Wind dir Wind speed Wind gust Bar.
00:09 -0.8 -3.6 79 0 0 1017.4
00:28 -0.9 -3.6 80 0 0 1017.4
00:38 -1.1 -3.8 80 0 0 1017.6
00:49 -1.2 -3.9 80 0 0 1017.6
00:59 -1.3 -4 80 0 0 1017.7
01:08 -1.4 -4.1 80 0 0 1017.6
01:18 -1.5 -4.2 80 0 0 1017.4
01:29 -1.5 -4.2 80 0 0 1017.7
01:39 -1.6 -4.3 80 0 0 1017.7
01:48 -1.7 -4.3 80 0 0 1017.8
01:59 -1.7 -4.2 81 0 0 1017.8
02:09 -1.7 -4.2 81 0 0 1017.8
02:19 -1.8 -4.3 81 0 0 1017.8
02:29 -1.8 -4.2 82 0 0 1017.6
02:39 -1.8 -4.2 82 0 0 1017.6
02:49 -1.8 -4.2 82 0 0 1017.3
02:59 -1.8 -4.2 82 0 0 1017.3
03:10 -1.7 -4.1 82 0 0 1017.4
03:19 -1.8 -4.2 82 0 0 1017.3
03:34 -1.8 -4.3 81 0 0 1017.4
03:45 -2 -4.5 81 0 0 1017.6
03:55 -2.1 -4.6 81 0 0 1017.4
04:04 -2.2 -4.7 81 0 0 1017.6
04:14 -2.3 -4.8 81 0 0 1017.7
04:25 -2.5 -5 81 0 0 1017.8
04:35 -2.6 -5.2 80 0 0 1017.6
04:45 -2.7 -5.2 81 0 0 1017.4
04:55 -2.8 -5.3 81 0 0 1017.7
05:05 -2.9 -5.4 81 0 0 1017.7
05:15 -3 -5.5 81 0 0 1017.6
05:25 -3.1 -5.6 81 0 0 1017.4
05:35 -3.1 -5.6 81 0 0 1017.4
05:45 -3.1 -5.4 82 0 0 1017.7
05:55 -3.3 -5.8 81 0 0 1017.4
06:06 -3.3 -5.8 81 0 0 1017.4
06:15 -3.5 -6 81 0 0 1017.3
06:25 -3.5 -6 81 0 0 1017.7
06:35 -3.6 -6.1 81 0 0 1017.4
06:46 -3.6 -6.1 81 0 0 1017.7
06:56 -3.7 -6.2 81 0 0 1017.7
07:05 -3.7 -6.2 81 0 0 1017.7
07:16 -3.8 -6.3 81 0 0 1017.7
07:26 -3.8 -6.1 82 0 0 1017.8
07:41 -3.9 -6.4 81 0 0 1018
07:51 -3.9 -6.2 82 0 0 1018.1
08:01 -3.9 -6.2 82 0 0 1018.1
08:11 -3.9 -6.2 82 0 0 1018.1
08:21 -3.8 -6.1 82 0 0 1018
08:31 -3.7 -6 82 0 0 1018.4
08:41 -3.6 -5.8 83 0 0 1018.2
08:51 -3.6 -5.9 82 0 0 1018.1
09:02 -3.5 -5.8 82 0 0 1018.1
09:11 -3.3 -5.5 83 0 0 1017.9
09:21 -3.2 -5.4 83 0 0 1017.9
09:31 -3 -5.2 83 0 0 1017.8
09:42 -2.6 -4.7 84 0 0 1017.8
09:52 -2 -4.1 84 0 0 1017.8
10:01 -1.3 -3.5 83 0 0 1017.9
10:12 -0.6 -2.8 83 0 0 1017.8
10:22 0 -2.4 82 0 0 1017.7
10:32 0.7 -1.8 82 0 0 1017.4
10:42 1.5 -1.1 82 0 0 1017.4
10:52 2.5 -0.5 80 0 0 1017.4
11:02 3.1 -0.5 77 0 0 1017.2
11:12 3.6 -0.4 75 0 0 1017.2
11:23 4.1 -0.4 72 0 0 1017
11:32 4.5 -0.3 71 0 0 1016.9
11:42 4.9 -0.1 70 0 0 1016.6
11:52 5.2 0 69 0 0 1016.6
12:03 5.5 -0.1 67 0 0 1016.5
12:12 5.9 0 66 0 0 1016.2
12:22 6.3 0.2 65 0 0 1016.1
12:33 6.6 0.1 63 0 0 1015.9
12:43 6.9 -0.1 61 0 0 1015.7
12:53 7.1 -0.1 60 0 0 1015.5
13:02 7.3 -0.2 59 0 0 1015.4
13:13 7.5 -0.2 58 0 0 1015.4
13:23 7.7 0 58 0 0 1015.3
13:33 7.8 -0.2 57 0 0 1014.9
13:43 7.8 -0.2 57 0 0 1014.9
13:53 7.8 -0.4 56 0 0 1014.7
14:03 7.7 -0.2 57 0 0 1014.8
14:14 7.7 -0.2 57 0 0 1014.6
14:24 7.7 -0.2 57 0 0 1014.5
14:33 7.7 -0.2 57 0 0 1014.3
14:43 7.6 -0.1 58 0 0 1014.5
14:53 7.4 -0.5 57 0 0 1014.3
15:04 7.1 -0.5 58 0 0 1014.3
15:13 6.8 -0.8 58 0 0 1014.3
15:23 6.4 -0.9 59 0 0 1014.3
15:34 6 -1.2 59 0 0 1014.3
15:44 5.6 -1.4 60 0 0 1014.3
15:54 5.3 -1.4 61 0 0 1014.4
16:04 5.2 -1.5 61 0 0 1014.3
16:14 5 -1.5 62 0 0 1014
16:24 4.8 -1.6 62 0 0 1014.1
16:34 4.5 -1.7 63 0 0 1013.9
16:44 4.3 -1.9 63 0 0 1013.9
16:54 4.1 -1.8 64 0 0 1013.9
17:04 3.8 -2.1 64 0 0 1013.9
17:15 3.3 -2.5 64 0 0 1013.9
17:25 2.9 -2.7 65 0 0 1014
17:34 2.5 -3 65 0 0 1014

STATISTICILE ZILEI

2020-01-27
TEMPERATURA
MEDIA
0.8
MAXIM
7.8
13:33
MINIM
-3.9
07:41
PRESIUNEA
MEDIA
1016.6
MAXIM
1018.4
08:31
MINIM
1013.9
16:34
PUNCTUL DE ROUĂ
MEDIA
-3.2
MAXIM
0.2
12:22
MINIM
-6.4
07:41
UMIDITATEA
MEDIA
74
MAXIM
84
09:42
MINIM
56
13:53
WIND SPEED
MEDIA
0.0
MAXIM
0.0
16:41
WIND GUST
MEDIA
0.0
MAXIM
0.0
16:41
WIND DIRECTION
PREVAILING
%
TEMPERATURA (°C)
MINIM
-3.9
MAXIM
7.8
MEDIA
0.8
PRESIUNEA (hpa)
MINIM
1013.9
MAXIM
1018.4
MEDIA
1016.6
STATIA METEO